createdAt,value
2022-12-07T00:00:13.162Z,16.20
2022-12-07T00:02:45.809Z,16.30
2022-12-07T00:05:18.452Z,16.20
2022-12-07T00:07:51.269Z,16.30
2022-12-07T00:10:23.833Z,16.30
2022-12-07T00:12:56.496Z,16.30
2022-12-07T00:15:29.340Z,16.30
2022-12-07T00:18:01.943Z,16.20
2022-12-07T00:20:34.682Z,16.30
2022-12-07T00:23:10.553Z,16.30
2022-12-07T00:25:43.302Z,16.30
2022-12-07T00:28:17.056Z,16.30
2022-12-07T00:30:52.008Z,16.30
2022-12-07T00:33:24.610Z,16.30
2022-12-07T00:35:58.519Z,16.30
2022-12-07T00:38:33.638Z,16.30
2022-12-07T00:41:08.759Z,16.30
2022-12-07T00:43:42.979Z,16.30
2022-12-07T00:46:17.045Z,16.30
2022-12-07T00:48:52.376Z,16.30
2022-12-07T00:51:26.737Z,16.30
2022-12-07T00:53:59.213Z,16.30
2022-12-07T00:56:31.872Z,16.30
2022-12-07T00:59:05.374Z,16.30
2022-12-07T01:01:38.472Z,16.30
2022-12-07T01:04:11.280Z,16.30
2022-12-07T01:06:43.963Z,16.30
2022-12-07T01:09:16.704Z,16.30
2022-12-07T01:11:52.460Z,16.30
2022-12-07T01:14:25.228Z,16.30
2022-12-07T01:16:57.856Z,16.30
2022-12-07T01:19:30.529Z,16.30
2022-12-07T01:22:03.199Z,16.30
2022-12-07T01:24:36.011Z,16.30
2022-12-07T01:27:08.611Z,16.30
2022-12-07T01:29:41.390Z,16.30
2022-12-07T01:32:14.218Z,16.30
2022-12-07T01:34:49.704Z,16.30
2022-12-07T01:37:22.725Z,16.30
2022-12-07T01:39:55.428Z,16.30
2022-12-07T01:42:30.061Z,16.30
2022-12-07T01:45:35.730Z,16.40
2022-12-07T01:48:11.422Z,16.30
2022-12-07T01:50:46.703Z,16.40
2022-12-07T01:53:20.064Z,16.30
2022-12-07T01:55:54.901Z,16.30
2022-12-07T01:58:27.672Z,16.40
2022-12-07T02:01:00.664Z,16.40
2022-12-07T02:03:39.220Z,16.40
2022-12-07T02:06:14.837Z,16.40
2022-12-07T02:08:48.640Z,16.40
2022-12-07T02:11:21.951Z,16.40
2022-12-07T02:13:57.019Z,16.40
2022-12-07T02:16:48.569Z,16.40
2022-12-07T02:19:36.257Z,16.40
2022-12-07T02:22:27.200Z,16.40
2022-12-07T02:25:08.932Z,16.40
2022-12-07T02:27:57.701Z,16.40
2022-12-07T02:30:33.236Z,16.40
2022-12-07T02:33:12.552Z,16.30
2022-12-07T02:35:54.339Z,16.40
2022-12-07T02:38:40.320Z,16.40
2022-12-07T02:41:19.890Z,16.30
2022-12-07T02:44:02.537Z,16.30
2022-12-07T02:46:42.713Z,16.30
2022-12-07T02:49:18.877Z,16.30
2022-12-07T02:51:51.521Z,16.30
2022-12-07T02:54:24.569Z,16.30
2022-12-07T02:57:16.400Z,16.30
2022-12-07T03:00:15.713Z,16.30
2022-12-07T03:03:13.918Z,16.30
2022-12-07T03:06:14.307Z,16.30
2022-12-07T03:09:04.629Z,16.30
2022-12-07T03:11:50.078Z,16.30
2022-12-07T03:14:48.856Z,16.30
2022-12-07T03:17:29.454Z,16.30
2022-12-07T03:20:05.791Z,16.30
2022-12-07T03:22:42.320Z,16.30
2022-12-07T03:25:18.089Z,16.30
2022-12-07T03:28:02.683Z,16.30
2022-12-07T03:30:45.976Z,16.20
2022-12-07T03:33:23.376Z,16.20
2022-12-07T03:36:16.247Z,16.20
2022-12-07T03:38:56.966Z,16.20
2022-12-07T03:41:34.242Z,16.20
2022-12-07T03:44:08.024Z,16.20
2022-12-07T03:46:45.749Z,16.20
2022-12-07T03:49:36.133Z,16.20
2022-12-07T03:52:25.888Z,16.20
2022-12-07T03:55:31.798Z,16.20
2022-12-07T03:58:13.946Z,16.20
2022-12-07T04:00:47.025Z,16.20
2022-12-07T04:03:19.756Z,16.20
2022-12-07T04:05:52.503Z,16.20
2022-12-07T04:08:25.361Z,16.20
2022-12-07T04:10:57.996Z,16.20
2022-12-07T04:13:30.752Z,16.20
2022-12-07T04:16:03.437Z,16.20
2022-12-07T04:18:36.150Z,16.20
2022-12-07T04:21:34.130Z,16.10
2022-12-07T04:24:09.736Z,16.10
2022-12-07T04:26:43.469Z,16.10
2022-12-07T04:29:19.690Z,16.10
2022-12-07T04:31:54.948Z,16.10
2022-12-07T04:34:27.689Z,16.10
2022-12-07T04:37:00.714Z,16.10
2022-12-07T04:39:34.403Z,16.10
2022-12-07T04:42:07.059Z,16.10
2022-12-07T04:44:39.947Z,16.10
2022-12-07T04:47:12.664Z,16.00
2022-12-07T04:49:45.444Z,16.00
2022-12-07T04:52:18.148Z,16.00
2022-12-07T04:54:53.820Z,16.00
2022-12-07T04:57:26.566Z,16.00
2022-12-07T04:59:59.374Z,16.00
2022-12-07T05:02:32.186Z,16.00
2022-12-07T05:05:05.033Z,16.00
2022-12-07T05:07:37.682Z,16.00
2022-12-07T05:10:10.823Z,16.00
2022-12-07T05:12:43.468Z,16.00
2022-12-07T05:15:21.790Z,16.00
2022-12-07T05:17:57.659Z,16.00
2022-12-07T05:20:30.427Z,16.00
2022-12-07T05:23:03.326Z,16.00
2022-12-07T05:25:36.313Z,16.00
2022-12-07T05:28:08.981Z,16.00
2022-12-07T05:30:41.596Z,16.00
2022-12-07T05:33:14.246Z,15.90
2022-12-07T05:35:46.862Z,15.90
2022-12-07T05:38:19.586Z,15.90
2022-12-07T05:40:52.401Z,15.90
2022-12-07T05:43:25.088Z,15.90
2022-12-07T05:45:57.788Z,15.90
2022-12-07T05:48:30.527Z,15.90
2022-12-07T05:51:03.142Z,15.90
2022-12-07T05:53:36.001Z,15.80
2022-12-07T05:56:08.852Z,15.80
2022-12-07T05:59:02.865Z,15.90
2022-12-07T06:01:35.530Z,15.90
2022-12-07T06:04:08.331Z,15.90
2022-12-07T06:06:41.009Z,15.90
2022-12-07T06:09:13.886Z,15.90
2022-12-07T06:12:04.787Z,15.80
2022-12-07T06:14:37.562Z,15.80
2022-12-07T06:17:10.310Z,15.80
2022-12-07T06:19:43.389Z,15.80
2022-12-07T06:22:17.462Z,15.80
2022-12-07T06:24:50.192Z,15.80
2022-12-07T06:27:22.978Z,15.80
2022-12-07T06:29:55.737Z,15.80
2022-12-07T06:32:28.542Z,15.80
2022-12-07T06:35:02.245Z,15.90
2022-12-07T06:37:34.987Z,15.90
2022-12-07T06:40:08.319Z,15.90
2022-12-07T06:42:41.043Z,15.90
2022-12-07T06:45:13.744Z,15.90
2022-12-07T06:47:49.670Z,15.90
2022-12-07T06:50:23.781Z,16.00
2022-12-07T06:52:58.749Z,16.00
2022-12-07T06:55:31.330Z,16.00
2022-12-07T06:58:04.057Z,16.10
2022-12-07T07:00:39.033Z,16.10
2022-12-07T07:03:11.848Z,16.10
2022-12-07T07:05:45.871Z,16.10
2022-12-07T07:08:22.861Z,16.10
2022-12-07T07:10:55.709Z,16.20
2022-12-07T07:13:29.036Z,16.20
2022-12-07T07:16:01.848Z,16.20
2022-12-07T07:18:34.815Z,16.20
2022-12-07T07:21:07.518Z,16.30
2022-12-07T07:23:40.258Z,16.30
2022-12-07T07:26:13.019Z,16.30
2022-12-07T07:28:48.852Z,16.30
2022-12-07T07:31:24.389Z,16.40
2022-12-07T07:33:57.105Z,16.40
2022-12-07T07:36:29.693Z,16.50
2022-12-07T07:39:02.422Z,16.50
2022-12-07T07:41:35.060Z,16.60
2022-12-07T07:44:08.874Z,16.60
2022-12-07T07:46:41.655Z,16.70
2022-12-07T07:49:14.507Z,16.70
2022-12-07T07:51:47.149Z,16.80
2022-12-07T07:54:22.838Z,16.80
2022-12-07T07:56:55.388Z,16.90
2022-12-07T07:59:28.172Z,17.00
2022-12-07T08:02:00.998Z,17.10
2022-12-07T08:04:33.766Z,17.10
2022-12-07T08:07:31.564Z,17.20
2022-12-07T08:10:05.294Z,17.30
2022-12-07T08:13:02.493Z,17.40
2022-12-07T08:15:37.497Z,17.50
2022-12-07T08:18:10.398Z,17.60
2022-12-07T08:20:43.611Z,17.60
2022-12-07T08:23:19.330Z,17.70
2022-12-07T08:25:54.276Z,17.80
2022-12-07T08:28:26.931Z,17.80
2022-12-07T08:31:03.926Z,17.90
2022-12-07T08:33:37.308Z,17.90
2022-12-07T08:36:12.370Z,18.00
2022-12-07T08:39:01.445Z,18.00
2022-12-07T08:41:40.050Z,18.10
2022-12-07T08:44:12.828Z,18.20
2022-12-07T08:47:01.192Z,18.20
2022-12-07T08:49:43.314Z,18.30
2022-12-07T08:52:16.734Z,18.40
2022-12-07T08:54:49.895Z,18.40
2022-12-07T08:57:22.680Z,18.40
2022-12-07T08:59:55.597Z,18.50
2022-12-07T09:02:33.001Z,18.50
2022-12-07T09:05:07.188Z,18.60
2022-12-07T09:07:44.583Z,18.70
2022-12-07T09:10:17.305Z,18.70
2022-12-07T09:12:49.931Z,18.80
2022-12-07T09:15:22.607Z,18.90
2022-12-07T09:17:55.316Z,19.00
2022-12-07T09:20:28.473Z,19.00
2022-12-07T09:23:00.982Z,19.00
2022-12-07T09:25:33.827Z,19.10
2022-12-07T09:28:06.432Z,19.20
2022-12-07T09:31:21.528Z,19.20
2022-12-07T09:33:42.694Z,19.30
2022-12-07T09:36:15.321Z,19.40
2022-12-07T09:38:47.992Z,19.40
2022-12-07T09:41:21.972Z,19.40
2022-12-07T09:43:59.643Z,19.40
2022-12-07T09:46:38.884Z,19.50
2022-12-07T09:49:20.692Z,19.50
2022-12-07T09:52:02.415Z,19.60
2022-12-07T09:54:42.050Z,19.60
2022-12-07T09:57:14.945Z,19.70
2022-12-07T09:59:47.682Z,19.70
2022-12-07T10:02:25.675Z,19.70
2022-12-07T10:05:00.352Z,19.80
2022-12-07T10:07:33.356Z,19.80
2022-12-07T10:10:18.570Z,19.80
2022-12-07T10:13:01.348Z,19.80
2022-12-07T10:15:48.030Z,19.80
2022-12-07T10:18:42.460Z,19.80
2022-12-07T10:21:26.975Z,19.70
2022-12-07T10:24:06.503Z,19.70
2022-12-07T10:26:52.179Z,19.70
2022-12-07T10:29:40.053Z,19.70
2022-12-07T10:32:15.585Z,19.70
2022-12-07T10:34:52.189Z,19.70
2022-12-07T10:37:29.237Z,19.70
2022-12-07T10:40:01.867Z,19.70
2022-12-07T10:42:34.457Z,19.70
2022-12-07T10:45:18.562Z,19.70
2022-12-07T10:48:18.550Z,19.70
2022-12-07T10:51:04.852Z,19.70
2022-12-07T10:53:43.330Z,19.70
2022-12-07T10:56:27.999Z,19.80
2022-12-07T10:59:12.658Z,19.70
2022-12-07T11:02:08.472Z,19.80
2022-12-07T11:05:04.563Z,19.80
2022-12-07T11:07:48.758Z,19.80
2022-12-07T11:10:53.487Z,19.80
2022-12-07T11:13:53.194Z,19.80
2022-12-07T11:16:32.225Z,19.70
2022-12-07T11:19:31.749Z,19.70
2022-12-07T11:22:42.505Z,19.70
2022-12-07T11:25:28.536Z,19.70
2022-12-07T11:28:34.062Z,19.70
2022-12-07T11:31:20.490Z,19.70
2022-12-07T11:34:05.845Z,19.70
2022-12-07T11:36:43.121Z,19.70
2022-12-07T11:39:43.124Z,19.70
2022-12-07T11:42:25.840Z,19.70
2022-12-07T11:45:17.596Z,19.70
2022-12-07T11:47:50.211Z,19.70
2022-12-07T11:50:56.096Z,19.70
2022-12-07T11:53:47.390Z,19.70
2022-12-07T11:56:26.835Z,19.70
2022-12-07T11:59:46.695Z,19.70
2022-12-07T12:02:33.000Z,19.80
2022-12-07T12:05:19.453Z,19.80
2022-12-07T12:11:15.568Z,19.80
2022-12-07T12:14:36.654Z,19.80
2022-12-07T12:17:38.490Z,19.80
2022-12-07T12:20:17.265Z,19.80
2022-12-07T12:23:28.229Z,19.80
2022-12-07T12:26:05.209Z,19.80
2022-12-07T12:28:50.464Z,19.80
2022-12-07T12:31:23.268Z,19.70
2022-12-07T12:34:01.629Z,19.70
2022-12-07T12:36:46.331Z,19.60
2022-12-07T12:39:22.089Z,19.50
2022-12-07T12:41:57.160Z,19.50
2022-12-07T12:44:35.090Z,19.40
2022-12-07T12:47:45.898Z,19.40
2022-12-07T12:50:22.540Z,19.30
2022-12-07T12:53:14.690Z,19.30
2022-12-07T12:56:16.855Z,19.30
2022-12-07T12:58:49.951Z,19.20
2022-12-07T13:01:42.685Z,19.20
2022-12-07T13:04:50.755Z,19.10
2022-12-07T13:07:54.415Z,19.10
2022-12-07T13:10:32.462Z,19.10
2022-12-07T13:13:25.324Z,19.00
2022-12-07T13:16:10.224Z,19.00
2022-12-07T13:18:43.399Z,19.00
2022-12-07T13:21:15.816Z,18.90
2022-12-07T13:23:51.263Z,18.90
2022-12-07T13:26:38.043Z,18.90
2022-12-07T13:29:22.600Z,18.90
2022-12-07T13:32:00.145Z,18.90
2022-12-07T13:34:37.368Z,18.80
2022-12-07T13:37:32.478Z,18.90
2022-12-07T13:40:23.292Z,18.80
2022-12-07T13:43:04.648Z,18.80
2022-12-07T13:45:49.775Z,18.80
2022-12-07T13:48:44.519Z,18.70
2022-12-07T13:51:28.754Z,18.80
2022-12-07T13:54:10.331Z,18.70
2022-12-07T13:56:43.388Z,18.70
2022-12-07T13:59:25.901Z,18.70
2022-12-07T14:01:58.591Z,18.70
2022-12-07T14:04:35.474Z,18.70
2022-12-07T14:07:26.889Z,18.70
2022-12-07T14:10:02.763Z,18.70
2022-12-07T14:12:38.152Z,18.70
2022-12-07T14:15:26.175Z,18.70
2022-12-07T14:18:04.464Z,18.60
2022-12-07T14:20:42.227Z,18.60
2022-12-07T14:23:29.068Z,18.60
2022-12-07T14:26:27.943Z,18.60
2022-12-07T14:29:23.511Z,18.50
2022-12-07T14:31:57.855Z,18.60
2022-12-07T14:34:30.566Z,18.50
2022-12-07T14:37:03.124Z,18.50
2022-12-07T14:39:35.767Z,18.50
2022-12-07T14:42:09.114Z,18.50
2022-12-07T14:44:42.112Z,18.40
2022-12-07T14:50:08.472Z,18.40
2022-12-07T14:55:36.113Z,18.30
2022-12-07T14:58:18.316Z,18.30
2022-12-07T15:00:50.957Z,18.30
2022-12-07T15:03:23.667Z,18.30
2022-12-07T15:05:56.454Z,18.30
2022-12-07T15:08:29.059Z,18.30
2022-12-07T15:11:02.224Z,18.20
2022-12-07T15:13:53.873Z,18.30
2022-12-07T15:16:33.432Z,18.20
2022-12-07T15:19:28.003Z,18.20
2022-12-07T15:22:01.438Z,18.20
2022-12-07T15:24:35.503Z,18.10
2022-12-07T15:27:08.238Z,18.10
2022-12-07T15:29:41.676Z,18.10
2022-12-07T15:32:17.322Z,18.10
2022-12-07T15:34:51.168Z,18.10
2022-12-07T15:37:23.710Z,18.10
2022-12-07T15:39:56.247Z,18.10
2022-12-07T15:42:28.910Z,18.10
2022-12-07T15:45:07.662Z,18.10
2022-12-07T15:48:26.298Z,18.10
2022-12-07T15:50:36.231Z,18.00
2022-12-07T15:53:08.940Z,18.00
2022-12-07T15:55:42.114Z,18.00
2022-12-07T15:58:39.656Z,18.00
2022-12-07T16:01:18.476Z,18.00
2022-12-07T16:03:52.263Z,18.00
2022-12-07T16:06:24.919Z,18.00
2022-12-07T16:08:57.605Z,17.90
2022-12-07T16:11:30.598Z,17.90
2022-12-07T16:14:03.483Z,17.90
2022-12-07T16:16:36.287Z,17.90
2022-12-07T16:22:06.346Z,17.90
2022-12-07T16:24:38.902Z,17.90
2022-12-07T16:27:11.454Z,17.80
2022-12-07T16:29:44.148Z,17.80
2022-12-07T16:32:16.799Z,17.80
2022-12-07T16:34:49.558Z,17.80
2022-12-07T16:37:22.197Z,17.80
2022-12-07T16:39:54.815Z,17.80
2022-12-07T16:42:27.785Z,17.80
2022-12-07T16:45:00.934Z,17.80
2022-12-07T16:47:33.652Z,17.80
2022-12-07T16:50:07.299Z,17.80
2022-12-07T16:52:39.935Z,17.80
2022-12-07T16:55:12.482Z,17.80
2022-12-07T16:57:45.201Z,17.80
2022-12-07T17:00:18.359Z,17.70
2022-12-07T17:02:50.944Z,17.70
2022-12-07T17:05:23.481Z,17.70
2022-12-07T17:07:57.174Z,17.70
2022-12-07T17:10:29.939Z,17.70
2022-12-07T17:13:03.987Z,17.70
2022-12-07T17:15:36.573Z,17.70
2022-12-07T17:18:09.124Z,17.70
2022-12-07T17:20:41.816Z,17.70
2022-12-07T17:23:14.573Z,17.70
2022-12-07T17:25:47.303Z,17.70
2022-12-07T17:28:20.007Z,17.70
2022-12-07T17:30:52.599Z,17.70
2022-12-07T17:33:25.276Z,17.70
2022-12-07T17:35:57.931Z,17.60
2022-12-07T17:38:30.598Z,17.70
2022-12-07T17:41:13.276Z,17.70
2022-12-07T17:43:45.927Z,17.70
2022-12-07T17:46:18.528Z,17.60
2022-12-07T17:48:51.458Z,17.60
2022-12-07T17:51:43.096Z,17.60
2022-12-07T17:54:15.993Z,17.60
2022-12-07T17:56:49.865Z,17.60
2022-12-07T17:59:22.625Z,17.60
2022-12-07T18:01:55.336Z,17.60
2022-12-07T18:04:27.961Z,17.60
2022-12-07T18:07:00.568Z,17.60
2022-12-07T18:09:33.227Z,17.60
2022-12-07T18:12:06.722Z,17.60
2022-12-07T18:14:39.468Z,17.60
2022-12-07T18:17:12.011Z,17.60
2022-12-07T18:19:44.802Z,17.60
2022-12-07T18:22:17.435Z,17.60
2022-12-07T18:24:50.097Z,17.60
2022-12-07T18:27:22.768Z,17.60
2022-12-07T18:29:56.089Z,17.60
2022-12-07T18:32:31.147Z,17.60
2022-12-07T18:35:04.089Z,17.50
2022-12-07T18:37:36.756Z,17.50
2022-12-07T18:40:10.163Z,17.50
2022-12-07T18:42:42.753Z,17.50
2022-12-07T18:45:15.584Z,17.50
2022-12-07T18:47:48.144Z,17.50
2022-12-07T18:50:20.812Z,17.50
2022-12-07T18:52:53.466Z,17.40
2022-12-07T18:55:27.425Z,17.50
2022-12-07T18:58:00.537Z,17.40
2022-12-07T19:00:35.693Z,17.40
2022-12-07T19:03:08.329Z,17.40
2022-12-07T19:05:40.814Z,17.40
2022-12-07T19:08:13.490Z,17.40
2022-12-07T19:10:46.067Z,17.40
2022-12-07T19:13:18.764Z,17.30
2022-12-07T19:15:51.262Z,17.30
2022-12-07T19:18:23.783Z,17.30
2022-12-07T19:20:56.360Z,17.30
2022-12-07T19:23:29.021Z,17.30
2022-12-07T19:26:01.676Z,17.30
2022-12-07T19:28:34.343Z,17.30
2022-12-07T19:31:08.213Z,17.30
2022-12-07T19:33:41.231Z,17.30
2022-12-07T19:36:13.863Z,17.30
2022-12-07T19:38:46.455Z,17.30
2022-12-07T19:41:34.162Z,17.20
2022-12-07T19:44:11.537Z,17.20
2022-12-07T19:46:46.953Z,17.20
2022-12-07T19:49:21.002Z,17.20
2022-12-07T19:51:56.017Z,17.20
2022-12-07T19:54:30.259Z,17.20
2022-12-07T19:57:04.709Z,17.20
2022-12-07T19:59:37.239Z,17.20
2022-12-07T20:02:13.662Z,17.20
2022-12-07T20:04:46.358Z,17.20
2022-12-07T20:07:18.887Z,17.10
2022-12-07T20:09:51.714Z,17.10
2022-12-07T20:12:42.790Z,17.10
2022-12-07T20:15:15.412Z,17.10
2022-12-07T20:17:48.125Z,17.10
2022-12-07T20:20:20.619Z,17.10
2022-12-07T20:22:53.322Z,17.10
2022-12-07T20:25:25.887Z,17.10
2022-12-07T20:27:58.745Z,17.00
2022-12-07T20:30:31.390Z,17.00
2022-12-07T20:33:04.121Z,17.00
2022-12-07T20:35:36.669Z,17.00
2022-12-07T20:38:10.398Z,17.00
2022-12-07T20:40:50.527Z,17.00
2022-12-07T20:43:23.265Z,17.00
2022-12-07T20:45:56.956Z,17.00
2022-12-07T20:48:29.627Z,17.00
2022-12-07T20:51:06.346Z,17.00
2022-12-07T20:53:38.986Z,16.90
2022-12-07T20:56:23.609Z,16.90
2022-12-07T20:58:57.528Z,16.90
2022-12-07T21:01:30.430Z,16.90
2022-12-07T21:04:03.683Z,16.90
2022-12-07T21:06:36.242Z,16.90
2022-12-07T21:09:11.196Z,16.90
2022-12-07T21:11:43.770Z,16.80
2022-12-07T21:14:16.425Z,16.80
2022-12-07T21:16:49.222Z,16.80
2022-12-07T21:19:21.855Z,16.80
2022-12-07T21:21:54.469Z,16.80
2022-12-07T21:24:27.113Z,16.80
2022-12-07T21:26:59.684Z,16.80
2022-12-07T21:29:43.276Z,16.80
2022-12-07T21:32:16.766Z,16.80
2022-12-07T21:34:49.578Z,16.70
2022-12-07T21:37:22.247Z,16.80
2022-12-07T21:39:54.871Z,16.70
2022-12-07T21:42:27.813Z,16.70
2022-12-07T21:45:01.578Z,16.70
2022-12-07T21:47:34.613Z,16.70
2022-12-07T21:50:07.983Z,16.70
2022-12-07T21:52:40.564Z,16.70
2022-12-07T21:55:13.211Z,16.70
2022-12-07T21:57:45.882Z,16.70
2022-12-07T22:00:19.002Z,16.70
2022-12-07T22:02:52.461Z,16.60
2022-12-07T22:05:25.282Z,16.60
2022-12-07T22:07:57.907Z,16.60
2022-12-07T22:10:31.307Z,16.60
2022-12-07T22:13:04.010Z,16.60
2022-12-07T22:15:40.837Z,16.60
2022-12-07T22:18:13.644Z,16.60
2022-12-07T22:20:46.246Z,16.60
2022-12-07T22:23:18.956Z,16.60
2022-12-07T22:28:48.015Z,16.60
2022-12-07T22:31:21.507Z,16.60
2022-12-07T22:33:54.438Z,16.60
2022-12-07T22:36:28.529Z,16.60
2022-12-07T22:39:01.689Z,16.60
2022-12-07T22:41:34.238Z,16.50
2022-12-07T22:44:08.082Z,16.60
2022-12-07T22:46:41.098Z,16.50
2022-12-07T22:49:13.698Z,16.50
2022-12-07T22:51:46.271Z,16.50
2022-12-07T22:54:18.970Z,16.50
2022-12-07T22:56:51.844Z,16.50
2022-12-07T22:59:24.472Z,16.50
2022-12-07T23:01:57.032Z,16.50
2022-12-07T23:04:29.706Z,16.50
2022-12-07T23:07:02.373Z,16.50
2022-12-07T23:09:35.033Z,16.50
2022-12-07T23:12:26.156Z,16.50
2022-12-07T23:14:58.800Z,16.40
2022-12-07T23:17:31.293Z,16.40
2022-12-07T23:20:06.162Z,16.40
2022-12-07T23:22:38.791Z,16.40
2022-12-07T23:25:11.400Z,16.40
2022-12-07T23:27:44.019Z,16.40
2022-12-07T23:30:16.791Z,16.40
2022-12-07T23:32:49.569Z,16.40
2022-12-07T23:35:22.239Z,16.40
2022-12-07T23:37:54.885Z,16.40
2022-12-07T23:40:27.606Z,16.40
2022-12-07T23:43:00.178Z,16.40
2022-12-07T23:45:32.807Z,16.30
2022-12-07T23:48:05.761Z,16.30
2022-12-07T23:50:38.410Z,16.30
2022-12-07T23:53:11.031Z,16.30
2022-12-07T23:55:47.157Z,16.30
2022-12-07T23:58:19.839Z,16.30
